createdAt,value
2023-03-16T00:01:28.589Z,38.03
2023-03-16T00:05:29.954Z,37.97
2023-03-16T00:09:31.464Z,37.98
2023-03-16T00:13:32.941Z,38.34
2023-03-16T00:17:34.726Z,37.67
2023-03-16T00:21:36.127Z,37.99
2023-03-16T00:25:37.468Z,36.85
2023-03-16T00:29:38.912Z,37.19
2023-03-16T00:33:42.934Z,36.64
2023-03-16T00:37:44.488Z,36.64
2023-03-16T00:41:46.011Z,38.17
2023-03-16T00:45:47.482Z,37.24
2023-03-16T00:49:48.887Z,37.40
2023-03-16T00:53:50.361Z,37.97
2023-03-16T00:57:51.745Z,36.36
2023-03-16T01:01:56.831Z,37.85
2023-03-16T01:06:00.802Z,37.49
2023-03-16T01:10:03.999Z,37.37
2023-03-16T01:14:05.651Z,36.09
2023-03-16T01:18:08.985Z,36.99
2023-03-16T01:22:11.604Z,37.42
2023-03-16T01:26:13.068Z,36.90
2023-03-16T01:30:14.533Z,37.34
2023-03-16T01:34:18.445Z,36.39
2023-03-16T01:38:20.185Z,37.21
2023-03-16T01:42:21.551Z,37.37
2023-03-16T01:46:29.850Z,36.70
2023-03-16T01:50:31.572Z,37.83
2023-03-16T01:54:40.801Z,36.92
2023-03-16T01:58:44.935Z,37.95
2023-03-16T02:02:51.352Z,38.01
2023-03-16T02:06:55.270Z,36.79
2023-03-16T02:10:57.602Z,37.25
2023-03-16T02:14:59.002Z,37.17
2023-03-16T02:19:00.958Z,36.36
2023-03-16T02:23:04.765Z,36.30
2023-03-16T02:27:13.879Z,36.82
2023-03-16T02:31:18.956Z,36.74
2023-03-16T02:35:21.232Z,36.10
2023-03-16T02:39:22.695Z,37.63
2023-03-16T02:43:33.238Z,37.17
2023-03-16T02:47:41.521Z,36.95
2023-03-16T02:51:45.911Z,36.21
2023-03-16T02:55:47.680Z,37.05
2023-03-16T02:59:49.092Z,36.29
2023-03-16T03:03:50.525Z,37.88
2023-03-16T03:07:51.944Z,36.83
2023-03-16T03:11:53.217Z,37.58
2023-03-16T03:15:54.575Z,37.67
2023-03-16T03:20:00.544Z,36.79
2023-03-16T03:24:02.562Z,37.31
2023-03-16T03:28:05.624Z,35.75
2023-03-16T03:32:08.003Z,37.74
2023-03-16T03:36:09.957Z,36.56
2023-03-16T03:40:14.426Z,35.46
2023-03-16T03:44:15.820Z,37.09
2023-03-16T03:48:17.176Z,36.13
2023-03-16T03:52:18.568Z,36.54
2023-03-16T03:56:20.371Z,35.79
2023-03-16T04:00:21.907Z,36.41
2023-03-16T04:04:23.309Z,35.44
2023-03-16T04:08:24.642Z,37.38
2023-03-16T04:12:26.049Z,36.43
2023-03-16T04:16:27.408Z,36.75
2023-03-16T04:20:29.898Z,37.21
2023-03-16T04:24:34.145Z,37.29
2023-03-16T04:28:35.458Z,36.83
2023-03-16T04:32:37.411Z,37.69
2023-03-16T04:36:39.184Z,38.03
2023-03-16T04:40:40.558Z,37.10
2023-03-16T04:44:44.287Z,38.38
2023-03-16T04:48:45.674Z,36.73
2023-03-16T04:52:47.072Z,37.40
2023-03-16T04:56:48.412Z,36.90
2023-03-16T05:00:52.493Z,36.18
2023-03-16T05:04:55.123Z,36.50
2023-03-16T05:08:59.151Z,36.44
2023-03-16T05:13:00.852Z,37.54
2023-03-16T05:17:03.792Z,35.76
2023-03-16T05:21:05.314Z,36.51
2023-03-16T05:25:07.034Z,36.20
2023-03-16T05:29:08.342Z,37.08
2023-03-16T05:33:09.754Z,36.95
2023-03-16T05:37:11.364Z,37.07
2023-03-16T05:41:14.853Z,36.86
2023-03-16T05:45:17.525Z,36.68
2023-03-16T05:49:18.911Z,36.65
2023-03-16T05:53:20.318Z,36.74
2023-03-16T05:57:21.685Z,37.72
2023-03-16T06:01:23.827Z,37.72
2023-03-16T06:05:25.404Z,37.06
2023-03-16T06:09:26.734Z,36.06
2023-03-16T06:13:28.077Z,36.63
2023-03-16T06:17:29.628Z,36.91
2023-03-16T06:21:31.097Z,36.77
2023-03-16T06:25:32.390Z,36.88
2023-03-16T06:29:33.751Z,36.21
2023-03-16T06:33:35.141Z,36.81
2023-03-16T06:37:36.677Z,36.51
2023-03-16T06:41:38.022Z,35.75
2023-03-16T06:45:39.409Z,35.85
2023-03-16T06:49:40.830Z,35.19
2023-03-16T06:53:42.189Z,36.06
2023-03-16T06:57:43.495Z,35.85
2023-03-16T07:01:45.086Z,36.90
2023-03-16T07:05:46.704Z,36.83
2023-03-16T07:09:48.036Z,34.98
2023-03-16T07:13:49.333Z,35.79
2023-03-16T07:17:52.354Z,34.61
2023-03-16T07:21:53.996Z,34.11
2023-03-16T07:25:55.480Z,34.18
2023-03-16T07:29:56.792Z,35.43
2023-03-16T07:33:58.970Z,35.35
2023-03-16T07:38:01.444Z,35.63
2023-03-16T07:42:02.980Z,34.68
2023-03-16T07:46:04.508Z,35.45
2023-03-16T07:50:06.595Z,35.28
2023-03-16T07:54:07.912Z,35.00
2023-03-16T07:58:10.726Z,33.82
2023-03-16T08:02:17.678Z,33.48
2023-03-16T08:06:19.316Z,34.23
2023-03-16T08:10:21.003Z,35.40
2023-03-16T08:14:22.342Z,34.98
2023-03-16T08:18:25.722Z,35.20
2023-03-16T08:22:27.106Z,34.90
2023-03-16T08:26:29.547Z,34.67
2023-03-16T08:30:31.405Z,33.73
2023-03-16T08:34:33.103Z,35.27
2023-03-16T08:38:35.232Z,33.03
2023-03-16T08:42:38.824Z,31.67
2023-03-16T08:46:40.682Z,31.96
2023-03-16T08:50:44.029Z,31.28
2023-03-16T08:55:01.531Z,31.72
2023-03-16T08:59:03.671Z,32.57
2023-03-16T09:03:06.838Z,34.02
2023-03-16T09:07:09.767Z,32.94
2023-03-16T09:11:14.264Z,33.50
2023-03-16T09:15:16.410Z,32.98
2023-03-16T09:19:18.072Z,31.16
2023-03-16T09:23:20.816Z,33.29
2023-03-16T09:27:22.478Z,31.17
2023-03-16T09:31:23.956Z,31.10
2023-03-16T09:35:26.613Z,29.55
2023-03-16T09:39:28.274Z,30.35
2023-03-16T09:43:44.435Z,30.90
2023-03-16T09:47:50.437Z,30.66
2023-03-16T09:52:03.210Z,29.80
2023-03-16T09:56:14.971Z,30.23
2023-03-16T10:00:20.018Z,31.14
2023-03-16T10:04:47.816Z,30.46
2023-03-16T10:09:00.342Z,32.06
2023-03-16T10:13:05.145Z,31.10
2023-03-16T10:17:14.388Z,32.79
2023-03-16T10:21:19.367Z,31.50
2023-03-16T10:25:31.407Z,32.19
2023-03-16T10:29:36.792Z,30.33
2023-03-16T10:33:39.349Z,30.95
2023-03-16T10:52:43.275Z,29.46
2023-03-16T10:56:46.147Z,29.60
2023-03-16T11:00:47.809Z,28.69
2023-03-16T11:04:50.712Z,28.74
2023-03-16T11:08:53.983Z,28.03
2023-03-16T11:13:02.425Z,28.47
2023-03-16T11:17:12.632Z,26.17
2023-03-16T11:21:25.622Z,25.50
2023-03-16T11:25:38.539Z,25.64
2023-03-16T11:30:27.316Z,26.06
2023-03-16T11:34:30.972Z,24.59
2023-03-16T11:39:00.419Z,25.88
2023-03-16T11:43:39.597Z,25.31
2023-03-16T11:48:15.845Z,24.58
2023-03-16T11:52:43.717Z,24.82
2023-03-16T11:56:54.627Z,24.42
2023-03-16T12:01:12.335Z,22.48
2023-03-16T12:05:25.584Z,22.68
2023-03-16T12:09:55.811Z,24.82
2023-03-16T12:14:00.420Z,24.56
2023-03-16T12:18:17.245Z,24.21
2023-03-16T12:22:39.580Z,26.38
2023-03-16T12:26:43.080Z,26.17
2023-03-16T12:30:55.554Z,25.24
2023-03-16T12:35:17.695Z,25.57
2023-03-16T12:39:30.323Z,28.23
2023-03-16T12:43:42.923Z,26.50
2023-03-16T12:47:58.751Z,27.12
2023-03-16T12:52:00.074Z,28.15
2023-03-16T12:56:08.583Z,25.94
2023-03-16T13:00:11.675Z,26.66
2023-03-16T13:04:19.781Z,27.93
2023-03-16T13:08:22.802Z,27.32
2023-03-16T13:12:36.995Z,27.11
2023-03-16T13:16:39.350Z,27.63
2023-03-16T13:20:58.651Z,26.46
2023-03-16T13:25:28.790Z,26.69
2023-03-16T13:29:32.532Z,26.09
2023-03-16T13:33:38.153Z,26.64
2023-03-16T13:37:43.593Z,26.80
2023-03-16T13:41:57.167Z,27.02
2023-03-16T13:45:58.957Z,27.33
2023-03-16T13:50:00.496Z,28.10
2023-03-16T13:54:18.432Z,26.81
2023-03-16T13:58:35.520Z,27.90
2023-03-16T14:02:42.560Z,27.78
2023-03-16T14:06:52.659Z,27.45
2023-03-16T14:10:59.138Z,26.26
2023-03-16T14:15:06.104Z,26.83
2023-03-16T14:19:20.218Z,26.66
2023-03-16T14:23:33.473Z,27.42
2023-03-16T14:27:40.894Z,26.34
2023-03-16T14:31:42.339Z,27.42
2023-03-16T14:35:44.693Z,26.85
2023-03-16T14:39:57.977Z,26.95
2023-03-16T14:44:01.571Z,26.06
2023-03-16T14:48:21.161Z,26.99
2023-03-16T14:52:31.673Z,27.34
2023-03-16T14:56:35.198Z,27.86
2023-03-16T15:00:50.164Z,26.32
2023-03-16T15:04:56.594Z,26.36
2023-03-16T15:08:58.774Z,27.06
2023-03-16T15:13:24.315Z,28.00
2023-03-16T15:17:25.963Z,27.44
2023-03-16T15:21:31.398Z,27.00
2023-03-16T15:25:38.258Z,28.10
2023-03-16T15:29:39.715Z,26.69
2023-03-16T15:33:42.078Z,26.61
2023-03-16T15:37:43.774Z,27.87
2023-03-16T15:41:47.776Z,28.15
2023-03-16T15:45:49.600Z,28.29
2023-03-16T15:49:51.163Z,28.53
2023-03-16T15:54:04.746Z,29.19
2023-03-16T15:58:15.986Z,28.66
2023-03-16T16:02:37.595Z,28.42
2023-03-16T16:06:38.922Z,28.67
2023-03-16T16:10:41.481Z,29.28
2023-03-16T16:14:42.883Z,29.10
2023-03-16T16:18:45.095Z,28.70
2023-03-16T16:22:47.192Z,29.48
2023-03-16T16:26:55.230Z,28.76
2023-03-16T16:30:59.240Z,29.38
2023-03-16T16:35:04.623Z,29.95
2023-03-16T16:39:06.726Z,29.76
2023-03-16T16:43:29.920Z,29.81
2023-03-16T16:47:31.292Z,30.65
2023-03-16T16:51:33.214Z,29.96
2023-03-16T16:55:34.692Z,29.96
2023-03-16T16:59:37.687Z,29.80
2023-03-16T17:03:39.008Z,31.50
2023-03-16T17:07:40.342Z,29.46
2023-03-16T17:11:43.739Z,31.51
2023-03-16T17:15:45.229Z,30.14
2023-03-16T17:19:47.073Z,30.19
2023-03-16T17:23:48.946Z,30.53
2023-03-16T17:27:53.424Z,31.81
2023-03-16T17:31:54.801Z,30.00
2023-03-16T17:35:56.320Z,30.54
2023-03-16T17:39:57.895Z,30.86
2023-03-16T17:44:04.806Z,30.76
2023-03-16T17:48:13.219Z,30.19
2023-03-16T17:52:18.210Z,30.43
2023-03-16T17:56:26.637Z,30.75
2023-03-16T18:00:33.364Z,30.19
2023-03-16T18:04:34.922Z,30.00
2023-03-16T18:08:36.730Z,29.93
2023-03-16T18:12:38.191Z,30.73
2023-03-16T18:16:40.582Z,31.17
2023-03-16T18:20:42.302Z,30.73
2023-03-16T18:24:44.947Z,31.25
2023-03-16T18:28:46.408Z,30.36
2023-03-16T18:32:47.730Z,30.35
2023-03-16T18:36:51.277Z,30.77
2023-03-16T18:40:52.657Z,31.39
2023-03-16T18:44:54.033Z,31.36
2023-03-16T18:48:57.960Z,30.97
2023-03-16T18:52:59.347Z,31.36
2023-03-16T18:57:04.154Z,30.11
2023-03-16T19:01:06.272Z,31.12
2023-03-16T19:05:35.632Z,31.00
2023-03-16T19:09:37.138Z,30.51
2023-03-16T19:13:38.543Z,30.79
2023-03-16T19:17:39.937Z,31.66
2023-03-16T19:21:42.811Z,31.69
2023-03-16T19:25:45.959Z,31.21
2023-03-16T19:29:49.867Z,32.01
2023-03-16T19:33:52.994Z,30.98
2023-03-16T19:37:54.469Z,31.99
2023-03-16T19:41:58.320Z,29.91
2023-03-16T19:45:59.655Z,30.69
2023-03-16T19:50:01.751Z,30.43
2023-03-16T19:54:03.143Z,30.97
2023-03-16T19:58:07.445Z,31.21
2023-03-16T20:02:31.926Z,31.13
2023-03-16T20:06:33.421Z,30.82
2023-03-16T20:10:34.982Z,30.67
2023-03-16T20:14:36.295Z,31.86
2023-03-16T20:18:37.792Z,31.06
2023-03-16T20:22:39.136Z,31.49
2023-03-16T20:26:40.925Z,31.68
2023-03-16T20:30:42.401Z,31.98
2023-03-16T20:34:45.210Z,31.22
2023-03-16T20:38:47.173Z,31.36
2023-03-16T20:42:49.695Z,32.14
2023-03-16T20:46:51.251Z,32.24
2023-03-16T20:50:54.374Z,31.73
2023-03-16T20:54:55.783Z,31.83
2023-03-16T20:58:57.852Z,31.31
2023-03-16T21:02:59.729Z,32.22
2023-03-16T21:07:01.138Z,31.62
2023-03-16T21:11:02.466Z,31.85
2023-03-16T21:15:16.180Z,31.52
2023-03-16T21:19:21.148Z,31.63
2023-03-16T21:23:23.877Z,31.13
2023-03-16T21:27:27.723Z,32.08
2023-03-16T21:31:29.116Z,32.17
2023-03-16T21:35:36.098Z,32.14
2023-03-16T21:39:37.449Z,31.55
2023-03-16T21:43:39.496Z,32.62
2023-03-16T21:47:41.433Z,31.33
2023-03-16T21:51:43.205Z,31.88
2023-03-16T21:55:44.538Z,31.45
2023-03-16T21:59:46.521Z,30.92
2023-03-16T22:03:51.355Z,31.46
2023-03-16T22:07:52.883Z,31.81
2023-03-16T22:11:54.258Z,32.95
2023-03-16T22:15:58.255Z,30.54
2023-03-16T22:19:59.804Z,30.98
2023-03-16T22:24:05.198Z,31.21
2023-03-16T22:28:12.460Z,30.98
2023-03-16T22:32:19.541Z,30.86
2023-03-16T22:36:22.088Z,31.34
2023-03-16T22:40:27.458Z,31.32
2023-03-16T22:44:28.835Z,31.25
2023-03-16T22:48:31.516Z,31.59
2023-03-16T22:52:37.168Z,31.13
2023-03-16T22:56:39.671Z,31.30
2023-03-16T23:00:41.429Z,31.40
2023-03-16T23:04:43.112Z,31.25
2023-03-16T23:08:48.198Z,30.45
2023-03-16T23:12:51.611Z,29.98
2023-03-16T23:16:53.430Z,30.70
2023-03-16T23:20:54.795Z,31.48
2023-03-16T23:24:56.586Z,31.06
2023-03-16T23:29:03.570Z,30.94
2023-03-16T23:33:04.941Z,30.63
2023-03-16T23:37:06.726Z,30.72
2023-03-16T23:41:10.272Z,30.50
2023-03-16T23:45:23.678Z,30.54
2023-03-16T23:49:32.494Z,30.84
2023-03-16T23:53:33.825Z,30.63
2023-03-16T23:57:35.181Z,30.78
